sensor_id;sensor_type;location;lat;lon;timestamp;P1;durP1;ratioP1;P2;durP2;ratioP2
34459;SDS011;20704;51.260;22.558;2023-02-07T00:00:24;51.50;;;23.20;;
34459;SDS011;20704;51.260;22.558;2023-02-07T00:02:47;56.43;;;24.87;;
34459;SDS011;20704;51.260;22.558;2023-02-07T00:04:50;51.53;;;22.97;;
34459;SDS011;20704;51.260;22.558;2023-02-07T00:06:52;49.83;;;23.20;;
34459;SDS011;20704;51.260;22.558;2023-02-07T00:08:55;50.47;;;21.30;;
34459;SDS011;20704;51.260;22.558;2023-02-07T00:11:06;45.70;;;21.80;;
34459;SDS011;20704;51.260;22.558;2023-02-07T00:13:10;55.63;;;23.13;;
34459;SDS011;20704;51.260;22.558;2023-02-07T00:15:12;55.83;;;23.97;;
34459;SDS011;20704;51.260;22.558;2023-02-07T00:17:16;59.93;;;25.30;;
34459;SDS011;20704;51.260;22.558;2023-02-07T00:19:18;53.73;;;24.73;;
34459;SDS011;20704;51.260;22.558;2023-02-07T00:21:21;48.07;;;21.70;;
34459;SDS011;20704;51.260;22.558;2023-02-07T00:23:25;50.80;;;23.93;;
34459;SDS011;20704;51.260;22.558;2023-02-07T00:25:27;55.17;;;22.97;;
34459;SDS011;20704;51.260;22.558;2023-02-07T00:27:29;52.17;;;23.40;;
34459;SDS011;20704;51.260;22.558;2023-02-07T00:29:32;54.10;;;23.77;;
34459;SDS011;20704;51.260;22.558;2023-02-07T00:31:34;52.37;;;23.80;;
34459;SDS011;20704;51.260;22.558;2023-02-07T00:33:37;56.03;;;22.60;;
34459;SDS011;20704;51.260;22.558;2023-02-07T00:35:41;54.37;;;23.57;;
34459;SDS011;20704;51.260;22.558;2023-02-07T00:37:43;53.93;;;23.93;;
34459;SDS011;20704;51.260;22.558;2023-02-07T00:39:46;55.17;;;23.67;;
34459;SDS011;20704;51.260;22.558;2023-02-07T00:41:48;49.93;;;22.27;;
34459;SDS011;20704;51.260;22.558;2023-02-07T00:43:51;50.80;;;22.57;;
34459;SDS011;20704;51.260;22.558;2023-02-07T00:45:53;56.90;;;24.40;;
34459;SDS011;20704;51.260;22.558;2023-02-07T00:47:56;56.13;;;24.87;;
34459;SDS011;20704;51.260;22.558;2023-02-07T00:49:58;52.23;;;24.90;;
34459;SDS011;20704;51.260;22.558;2023-02-07T00:52:01;55.17;;;24.03;;
34459;SDS011;20704;51.260;22.558;2023-02-07T00:54:04;55.30;;;24.37;;
34459;SDS011;20704;51.260;22.558;2023-02-07T00:56:07;59.77;;;23.63;;
34459;SDS011;20704;51.260;22.558;2023-02-07T00:58:09;53.53;;;23.50;;
34459;SDS011;20704;51.260;22.558;2023-02-07T01:00:12;53.10;;;22.43;;
34459;SDS011;20704;51.260;22.558;2023-02-07T01:02:15;50.70;;;21.83;;
34459;SDS011;20704;51.260;22.558;2023-02-07T01:04:17;53.63;;;23.97;;
34459;SDS011;20704;51.260;22.558;2023-02-07T01:06:19;48.60;;;23.80;;
34459;SDS011;20704;51.260;22.558;2023-02-07T01:08:22;52.40;;;23.40;;
34459;SDS011;20704;51.260;22.558;2023-02-07T01:10:25;48.20;;;23.70;;
34459;SDS011;20704;51.260;22.558;2023-02-07T01:12:27;53.20;;;23.13;;
34459;SDS011;20704;51.260;22.558;2023-02-07T01:14:29;55.53;;;24.77;;
34459;SDS011;20704;51.260;22.558;2023-02-07T01:16:33;52.97;;;23.17;;
34459;SDS011;20704;51.260;22.558;2023-02-07T01:18:37;60.90;;;23.57;;
34459;SDS011;20704;51.260;22.558;2023-02-07T01:20:39;50.90;;;21.47;;
34459;SDS011;20704;51.260;22.558;2023-02-07T01:22:41;54.23;;;25.13;;
34459;SDS011;20704;51.260;22.558;2023-02-07T01:24:44;51.93;;;22.30;;
34459;SDS011;20704;51.260;22.558;2023-02-07T01:26:46;50.30;;;22.23;;
34459;SDS011;20704;51.260;22.558;2023-02-07T01:28:49;50.63;;;23.60;;
34459;SDS011;20704;51.260;22.558;2023-02-07T01:30:51;56.53;;;21.67;;
34459;SDS011;20704;51.260;22.558;2023-02-07T01:32:53;53.47;;;23.77;;
34459;SDS011;20704;51.260;22.558;2023-02-07T01:34:56;53.90;;;24.17;;
34459;SDS011;20704;51.260;22.558;2023-02-07T01:36:58;48.90;;;22.00;;
34459;SDS011;20704;51.260;22.558;2023-02-07T01:39:00;46.27;;;22.63;;
34459;SDS011;20704;51.260;22.558;2023-02-07T01:41:05;51.70;;;24.80;;
34459;SDS011;20704;51.260;22.558;2023-02-07T01:43:12;55.27;;;23.80;;
34459;SDS011;20704;51.260;22.558;2023-02-07T01:45:28;50.50;;;22.70;;
34459;SDS011;20704;51.260;22.558;2023-02-07T01:47:38;47.57;;;21.90;;
34459;SDS011;20704;51.260;22.558;2023-02-07T01:49:40;52.17;;;24.03;;
34459;SDS011;20704;51.260;22.558;2023-02-07T01:51:45;47.90;;;23.87;;
34459;SDS011;20704;51.260;22.558;2023-02-07T01:53:50;52.00;;;22.77;;
34459;SDS011;20704;51.260;22.558;2023-02-07T01:55:57;45.03;;;23.57;;
34459;SDS011;20704;51.260;22.558;2023-02-07T01:58:03;53.30;;;23.50;;
34459;SDS011;20704;51.260;22.558;2023-02-07T02:00:07;53.13;;;23.37;;
34459;SDS011;20704;51.260;22.558;2023-02-07T02:02:11;49.20;;;23.80;;
34459;SDS011;20704;51.260;22.558;2023-02-07T02:04:16;46.73;;;22.97;;
34459;SDS011;20704;51.260;22.558;2023-02-07T02:06:19;51.80;;;24.40;;
34459;SDS011;20704;51.260;22.558;2023-02-07T02:08:23;51.77;;;22.77;;
34459;SDS011;20704;51.260;22.558;2023-02-07T02:10:29;49.37;;;20.97;;
34459;SDS011;20704;51.260;22.558;2023-02-07T02:17:59;45.10;;;21.57;;
34459;SDS011;20704;51.260;22.558;2023-02-07T02:27:15;47.77;;;22.13;;
34459;SDS011;20704;51.260;22.558;2023-02-07T02:39:39;42.53;;;21.70;;
34459;SDS011;20704;51.260;22.558;2023-02-07T02:42:06;45.20;;;21.77;;
34459;SDS011;20704;51.260;22.558;2023-02-07T02:44:22;46.03;;;23.03;;
34459;SDS011;20704;51.260;22.558;2023-02-07T02:46:30;44.17;;;20.53;;
34459;SDS011;20704;51.260;22.558;2023-02-07T02:48:36;47.07;;;22.60;;
34459;SDS011;20704;51.260;22.558;2023-02-07T02:50:40;49.87;;;21.17;;
34459;SDS011;20704;51.260;22.558;2023-02-07T02:52:47;48.77;;;21.83;;
34459;SDS011;20704;51.260;22.558;2023-02-07T02:54:51;50.57;;;22.33;;
34459;SDS011;20704;51.260;22.558;2023-02-07T02:56:57;47.83;;;21.63;;
34459;SDS011;20704;51.260;22.558;2023-02-07T03:02:00;48.47;;;22.60;;
34459;SDS011;20704;51.260;22.558;2023-02-07T03:11:29;48.17;;;21.23;;
34459;SDS011;20704;51.260;22.558;2023-02-07T03:14:03;45.13;;;21.08;;
34459;SDS011;20704;51.260;22.558;2023-02-07T03:17:10;45.60;;;22.03;;
34459;SDS011;20704;51.260;22.558;2023-02-07T03:18:59;47.47;;;23.23;;
34459;SDS011;20704;51.260;22.558;2023-02-07T03:21:08;47.67;;;21.63;;
34459;SDS011;20704;51.260;22.558;2023-02-07T03:23:25;43.67;;;21.73;;
34459;SDS011;20704;51.260;22.558;2023-02-07T03:25:30;48.60;;;21.63;;
34459;SDS011;20704;51.260;22.558;2023-02-07T03:27:32;51.97;;;23.30;;
34459;SDS011;20704;51.260;22.558;2023-02-07T03:29:36;48.53;;;21.97;;
34459;SDS011;20704;51.260;22.558;2023-02-07T03:31:42;47.03;;;21.67;;
34459;SDS011;20704;51.260;22.558;2023-02-07T03:33:48;46.27;;;22.47;;
34459;SDS011;20704;51.260;22.558;2023-02-07T03:35:59;51.70;;;23.40;;
34459;SDS011;20704;51.260;22.558;2023-02-07T03:38:09;50.70;;;22.07;;
34459;SDS011;20704;51.260;22.558;2023-02-07T03:40:12;46.40;;;22.53;;
34459;SDS011;20704;51.260;22.558;2023-02-07T03:42:20;43.63;;;22.00;;
34459;SDS011;20704;51.260;22.558;2023-02-07T03:44:56;53.43;;;23.23;;
34459;SDS011;20704;51.260;22.558;2023-02-07T03:47:02;50.43;;;22.90;;
34459;SDS011;20704;51.260;22.558;2023-02-07T03:49:05;47.80;;;21.43;;
34459;SDS011;20704;51.260;22.558;2023-02-07T03:51:10;49.60;;;23.50;;
34459;SDS011;20704;51.260;22.558;2023-02-07T03:53:12;49.37;;;23.33;;
34459;SDS011;20704;51.260;22.558;2023-02-07T03:55:15;52.63;;;22.70;;
34459;SDS011;20704;51.260;22.558;2023-02-07T03:57:17;50.00;;;22.87;;
34459;SDS011;20704;51.260;22.558;2023-02-07T03:59:19;54.27;;;23.40;;
34459;SDS011;20704;51.260;22.558;2023-02-07T04:01:21;49.13;;;23.33;;
34459;SDS011;20704;51.260;22.558;2023-02-07T04:03:24;47.83;;;23.80;;
34459;SDS011;20704;51.260;22.558;2023-02-07T04:05:26;51.53;;;23.70;;
34459;SDS011;20704;51.260;22.558;2023-02-07T04:07:29;48.93;;;23.33;;
34459;SDS011;20704;51.260;22.558;2023-02-07T04:09:31;52.30;;;21.50;;
34459;SDS011;20704;51.260;22.558;2023-02-07T04:11:33;50.10;;;23.13;;
34459;SDS011;20704;51.260;22.558;2023-02-07T04:13:36;52.50;;;24.40;;
34459;SDS011;20704;51.260;22.558;2023-02-07T04:15:39;55.10;;;25.00;;
34459;SDS011;20704;51.260;22.558;2023-02-07T04:17:41;54.53;;;25.47;;
34459;SDS011;20704;51.260;22.558;2023-02-07T04:19:43;53.60;;;24.70;;
34459;SDS011;20704;51.260;22.558;2023-02-07T04:21:45;47.40;;;25.57;;
34459;SDS011;20704;51.260;22.558;2023-02-07T04:23:48;53.93;;;24.17;;
34459;SDS011;20704;51.260;22.558;2023-02-07T04:25:50;50.43;;;24.67;;
34459;SDS011;20704;51.260;22.558;2023-02-07T04:27:52;52.50;;;27.10;;
34459;SDS011;20704;51.260;22.558;2023-02-07T04:29:55;46.20;;;23.87;;
34459;SDS011;20704;51.260;22.558;2023-02-07T04:31:57;53.10;;;26.27;;
34459;SDS011;20704;51.260;22.558;2023-02-07T04:33:59;53.10;;;24.73;;
34459;SDS011;20704;51.260;22.558;2023-02-07T04:36:02;49.33;;;23.37;;
34459;SDS011;20704;51.260;22.558;2023-02-07T04:38:05;56.27;;;24.93;;
34459;SDS011;20704;51.260;22.558;2023-02-07T04:40:07;49.53;;;24.00;;
34459;SDS011;20704;51.260;22.558;2023-02-07T04:42:10;49.40;;;23.93;;
34459;SDS011;20704;51.260;22.558;2023-02-07T04:44:13;53.80;;;24.20;;
34459;SDS011;20704;51.260;22.558;2023-02-07T04:46:15;53.70;;;24.90;;
34459;SDS011;20704;51.260;22.558;2023-02-07T04:48:17;48.37;;;25.80;;
34459;SDS011;20704;51.260;22.558;2023-02-07T04:50:19;52.93;;;25.57;;
34459;SDS011;20704;51.260;22.558;2023-02-07T04:52:22;52.97;;;26.60;;
34459;SDS011;20704;51.260;22.558;2023-02-07T04:54:24;54.80;;;24.67;;
34459;SDS011;20704;51.260;22.558;2023-02-07T04:56:27;50.40;;;25.87;;
34459;SDS011;20704;51.260;22.558;2023-02-07T04:58:29;52.37;;;26.73;;
34459;SDS011;20704;51.260;22.558;2023-02-07T05:00:31;48.53;;;24.10;;
34459;SDS011;20704;51.260;22.558;2023-02-07T05:02:34;51.80;;;23.87;;
34459;SDS011;20704;51.260;22.558;2023-02-07T05:04:37;49.80;;;23.80;;
34459;SDS011;20704;51.260;22.558;2023-02-07T05:06:39;54.50;;;26.80;;
34459;SDS011;20704;51.260;22.558;2023-02-07T05:08:42;48.57;;;25.30;;
34459;SDS011;20704;51.260;22.558;2023-02-07T05:10:44;56.13;;;26.23;;
34459;SDS011;20704;51.260;22.558;2023-02-07T05:12:46;46.93;;;24.27;;
34459;SDS011;20704;51.260;22.558;2023-02-07T05:14:49;52.80;;;25.60;;
34459;SDS011;20704;51.260;22.558;2023-02-07T05:16:51;52.67;;;25.73;;
34459;SDS011;20704;51.260;22.558;2023-02-07T05:18:53;52.30;;;26.33;;
34459;SDS011;20704;51.260;22.558;2023-02-07T05:20:56;51.73;;;26.80;;
34459;SDS011;20704;51.260;22.558;2023-02-07T05:22:59;50.57;;;22.57;;
34459;SDS011;20704;51.260;22.558;2023-02-07T05:25:01;53.80;;;24.07;;
34459;SDS011;20704;51.260;22.558;2023-02-07T05:27:04;44.73;;;21.67;;
34459;SDS011;20704;51.260;22.558;2023-02-07T05:29:06;46.57;;;23.00;;
34459;SDS011;20704;51.260;22.558;2023-02-07T05:31:08;54.17;;;24.40;;
34459;SDS011;20704;51.260;22.558;2023-02-07T05:33:11;48.13;;;24.10;;
34459;SDS011;20704;51.260;22.558;2023-02-07T05:35:13;47.03;;;23.60;;
34459;SDS011;20704;51.260;22.558;2023-02-07T05:37:16;52.93;;;24.87;;
34459;SDS011;20704;51.260;22.558;2023-02-07T05:39:18;51.17;;;23.60;;
34459;SDS011;20704;51.260;22.558;2023-02-07T05:41:20;52.40;;;22.93;;
34459;SDS011;20704;51.260;22.558;2023-02-07T05:43:22;51.30;;;24.80;;
34459;SDS011;20704;51.260;22.558;2023-02-07T05:45:25;46.90;;;22.33;;
34459;SDS011;20704;51.260;22.558;2023-02-07T05:47:27;51.77;;;24.20;;
34459;SDS011;20704;51.260;22.558;2023-02-07T05:49:29;45.23;;;24.03;;
34459;SDS011;20704;51.260;22.558;2023-02-07T05:51:31;48.43;;;24.17;;
34459;SDS011;20704;51.260;22.558;2023-02-07T05:53:34;54.27;;;25.00;;
34459;SDS011;20704;51.260;22.558;2023-02-07T05:55:37;55.00;;;25.00;;
34459;SDS011;20704;51.260;22.558;2023-02-07T05:57:40;55.13;;;24.97;;
34459;SDS011;20704;51.260;22.558;2023-02-07T05:59:43;50.00;;;24.43;;
34459;SDS011;20704;51.260;22.558;2023-02-07T06:01:46;54.33;;;22.67;;
34459;SDS011;20704;51.260;22.558;2023-02-07T06:03:48;48.23;;;24.47;;
34459;SDS011;20704;51.260;22.558;2023-02-07T06:05:50;47.97;;;22.47;;
34459;SDS011;20704;51.260;22.558;2023-02-07T06:07:52;54.57;;;23.20;;
34459;SDS011;20704;51.260;22.558;2023-02-07T06:09:55;47.77;;;23.33;;
34459;SDS011;20704;51.260;22.558;2023-02-07T06:11:57;50.30;;;24.13;;
34459;SDS011;20704;51.260;22.558;2023-02-07T06:14:00;49.60;;;24.20;;
34459;SDS011;20704;51.260;22.558;2023-02-07T06:16:02;47.87;;;21.73;;
34459;SDS011;20704;51.260;22.558;2023-02-07T06:18:05;44.10;;;22.30;;
34459;SDS011;20704;51.260;22.558;2023-02-07T06:20:08;50.93;;;24.20;;
34459;SDS011;20704;51.260;22.558;2023-02-07T06:22:11;49.50;;;22.63;;
34459;SDS011;20704;51.260;22.558;2023-02-07T06:24:13;44.70;;;24.57;;
34459;SDS011;20704;51.260;22.558;2023-02-07T06:26:16;50.27;;;23.47;;
34459;SDS011;20704;51.260;22.558;2023-02-07T06:28:20;54.40;;;24.03;;
34459;SDS011;20704;51.260;22.558;2023-02-07T06:30:22;49.13;;;22.23;;
34459;SDS011;20704;51.260;22.558;2023-02-07T06:32:24;45.43;;;22.80;;
34459;SDS011;20704;51.260;22.558;2023-02-07T06:34:27;42.20;;;21.60;;
34459;SDS011;20704;51.260;22.558;2023-02-07T06:36:29;45.40;;;22.87;;
34459;SDS011;20704;51.260;22.558;2023-02-07T06:38:32;53.53;;;23.23;;
34459;SDS011;20704;51.260;22.558;2023-02-07T06:40:35;47.73;;;21.77;;
34459;SDS011;20704;51.260;22.558;2023-02-07T06:42:37;41.10;;;21.00;;
34459;SDS011;20704;51.260;22.558;2023-02-07T06:44:40;45.80;;;22.10;;
34459;SDS011;20704;51.260;22.558;2023-02-07T06:46:43;49.43;;;21.97;;
34459;SDS011;20704;51.260;22.558;2023-02-07T06:48:45;43.50;;;21.23;;
34459;SDS011;20704;51.260;22.558;2023-02-07T06:50:48;43.70;;;21.53;;
34459;SDS011;20704;51.260;22.558;2023-02-07T06:52:52;46.43;;;21.70;;
34459;SDS011;20704;51.260;22.558;2023-02-07T06:54:54;45.27;;;22.23;;
34459;SDS011;20704;51.260;22.558;2023-02-07T06:56:57;45.17;;;21.73;;
34459;SDS011;20704;51.260;22.558;2023-02-07T06:58:59;43.27;;;21.20;;
34459;SDS011;20704;51.260;22.558;2023-02-07T07:01:01;47.53;;;21.90;;
34459;SDS011;20704;51.260;22.558;2023-02-07T07:03:05;45.23;;;22.53;;
34459;SDS011;20704;51.260;22.558;2023-02-07T07:05:07;44.00;;;22.10;;
34459;SDS011;20704;51.260;22.558;2023-02-07T07:07:10;51.23;;;23.37;;
34459;SDS011;20704;51.260;22.558;2023-02-07T07:09:12;43.87;;;21.57;;
34459;SDS011;20704;51.260;22.558;2023-02-07T07:11:15;47.57;;;23.37;;
34459;SDS011;20704;51.260;22.558;2023-02-07T07:13:17;43.03;;;21.70;;
34459;SDS011;20704;51.260;22.558;2023-02-07T07:15:19;51.97;;;23.97;;
34459;SDS011;20704;51.260;22.558;2023-02-07T07:17:22;47.87;;;21.23;;
34459;SDS011;20704;51.260;22.558;2023-02-07T07:19:24;51.83;;;21.33;;
34459;SDS011;20704;51.260;22.558;2023-02-07T07:21:26;44.00;;;23.47;;
34459;SDS011;20704;51.260;22.558;2023-02-07T07:23:29;46.87;;;22.93;;
34459;SDS011;20704;51.260;22.558;2023-02-07T07:25:31;42.00;;;21.00;;
34459;SDS011;20704;51.260;22.558;2023-02-07T07:27:34;47.10;;;22.23;;
34459;SDS011;20704;51.260;22.558;2023-02-07T07:29:36;48.33;;;24.40;;
34459;SDS011;20704;51.260;22.558;2023-02-07T07:31:38;45.63;;;23.13;;
34459;SDS011;20704;51.260;22.558;2023-02-07T07:33:41;44.43;;;22.80;;
34459;SDS011;20704;51.260;22.558;2023-02-07T07:35:43;46.77;;;23.37;;
34459;SDS011;20704;51.260;22.558;2023-02-07T07:37:45;51.13;;;23.70;;
34459;SDS011;20704;51.260;22.558;2023-02-07T07:39:48;48.03;;;23.50;;
34459;SDS011;20704;51.260;22.558;2023-02-07T07:41:50;45.50;;;23.93;;
34459;SDS011;20704;51.260;22.558;2023-02-07T07:43:53;52.90;;;24.17;;
34459;SDS011;20704;51.260;22.558;2023-02-07T07:45:56;51.83;;;24.57;;
34459;SDS011;20704;51.260;22.558;2023-02-07T07:48:00;47.57;;;22.17;;
34459;SDS011;20704;51.260;22.558;2023-02-07T07:50:03;41.43;;;22.60;;
34459;SDS011;20704;51.260;22.558;2023-02-07T07:52:06;44.83;;;22.13;;
34459;SDS011;20704;51.260;22.558;2023-02-07T07:54:08;42.10;;;19.63;;
34459;SDS011;20704;51.260;22.558;2023-02-07T07:56:11;42.50;;;21.50;;
34459;SDS011;20704;51.260;22.558;2023-02-07T07:58:13;43.17;;;22.33;;
34459;SDS011;20704;51.260;22.558;2023-02-07T08:00:15;45.90;;;21.70;;
34459;SDS011;20704;51.260;22.558;2023-02-07T08:02:18;42.57;;;20.90;;
34459;SDS011;20704;51.260;22.558;2023-02-07T08:04:20;44.63;;;21.70;;
34459;SDS011;20704;51.260;22.558;2023-02-07T08:06:23;42.23;;;21.30;;
34459;SDS011;20704;51.260;22.558;2023-02-07T08:08:25;45.37;;;21.63;;
34459;SDS011;20704;51.260;22.558;2023-02-07T08:10:28;42.20;;;21.00;;
34459;SDS011;20704;51.260;22.558;2023-02-07T08:12:30;44.77;;;20.77;;
34459;SDS011;20704;51.260;22.558;2023-02-07T08:14:32;46.17;;;22.30;;
34459;SDS011;20704;51.260;22.558;2023-02-07T08:16:35;46.90;;;22.43;;
34459;SDS011;20704;51.260;22.558;2023-02-07T08:18:37;41.53;;;21.13;;
34459;SDS011;20704;51.260;22.558;2023-02-07T08:20:40;38.03;;;20.03;;
34459;SDS011;20704;51.260;22.558;2023-02-07T08:22:42;46.43;;;22.00;;
34459;SDS011;20704;51.260;22.558;2023-02-07T08:24:44;44.77;;;20.53;;
34459;SDS011;20704;51.260;22.558;2023-02-07T08:26:46;41.63;;;20.10;;
34459;SDS011;20704;51.260;22.558;2023-02-07T08:28:49;40.47;;;20.07;;
34459;SDS011;20704;51.260;22.558;2023-02-07T08:30:52;42.77;;;20.20;;
34459;SDS011;20704;51.260;22.558;2023-02-07T08:32:55;41.93;;;20.83;;
34459;SDS011;20704;51.260;22.558;2023-02-07T08:34:57;41.37;;;20.57;;
34459;SDS011;20704;51.260;22.558;2023-02-07T08:37:00;42.83;;;20.43;;
34459;SDS011;20704;51.260;22.558;2023-02-07T08:39:02;47.50;;;21.77;;
34459;SDS011;20704;51.260;22.558;2023-02-07T08:41:07;41.20;;;20.93;;
34459;SDS011;20704;51.260;22.558;2023-02-07T08:43:09;42.70;;;21.37;;
34459;SDS011;20704;51.260;22.558;2023-02-07T08:45:13;42.47;;;21.63;;
34459;SDS011;20704;51.260;22.558;2023-02-07T08:47:18;39.10;;;19.07;;
34459;SDS011;20704;51.260;22.558;2023-02-07T08:49:20;43.43;;;20.30;;
34459;SDS011;20704;51.260;22.558;2023-02-07T08:51:22;47.33;;;21.73;;
34459;SDS011;20704;51.260;22.558;2023-02-07T08:53:25;41.03;;;19.73;;
34459;SDS011;20704;51.260;22.558;2023-02-07T08:55:28;41.00;;;20.90;;
34459;SDS011;20704;51.260;22.558;2023-02-07T08:57:31;39.70;;;20.60;;
34459;SDS011;20704;51.260;22.558;2023-02-07T08:59:33;42.00;;;19.60;;
34459;SDS011;20704;51.260;22.558;2023-02-07T09:01:36;39.57;;;18.50;;
34459;SDS011;20704;51.260;22.558;2023-02-07T09:03:38;39.23;;;20.53;;
34459;SDS011;20704;51.260;22.558;2023-02-07T09:05:41;36.63;;;19.07;;
34459;SDS011;20704;51.260;22.558;2023-02-07T09:07:43;41.57;;;19.63;;
34459;SDS011;20704;51.260;22.558;2023-02-07T09:09:45;41.90;;;19.73;;
34459;SDS011;20704;51.260;22.558;2023-02-07T09:11:48;41.50;;;21.70;;
34459;SDS011;20704;51.260;22.558;2023-02-07T09:13:50;35.80;;;18.30;;
34459;SDS011;20704;51.260;22.558;2023-02-07T09:15:53;37.33;;;18.53;;
34459;SDS011;20704;51.260;22.558;2023-02-07T09:17:57;50.13;;;19.90;;
34459;SDS011;20704;51.260;22.558;2023-02-07T09:19:59;38.73;;;17.53;;
34459;SDS011;20704;51.260;22.558;2023-02-07T09:22:02;36.50;;;17.87;;
34459;SDS011;20704;51.260;22.558;2023-02-07T09:24:05;34.47;;;18.20;;
34459;SDS011;20704;51.260;22.558;2023-02-07T09:26:08;35.77;;;18.73;;
34459;SDS011;20704;51.260;22.558;2023-02-07T09:28:12;37.03;;;20.13;;
34459;SDS011;20704;51.260;22.558;2023-02-07T09:30:15;36.93;;;18.40;;
34459;SDS011;20704;51.260;22.558;2023-02-07T09:32:17;34.33;;;16.77;;
34459;SDS011;20704;51.260;22.558;2023-02-07T09:34:20;37.73;;;17.07;;
34459;SDS011;20704;51.260;22.558;2023-02-07T09:36:24;35.37;;;19.23;;
34459;SDS011;20704;51.260;22.558;2023-02-07T09:38:27;33.17;;;17.60;;
34459;SDS011;20704;51.260;22.558;2023-02-07T09:40:31;36.03;;;18.77;;
34459;SDS011;20704;51.260;22.558;2023-02-07T09:42:41;34.87;;;17.17;;
34459;SDS011;20704;51.260;22.558;2023-02-07T09:45:08;34.30;;;18.33;;
34459;SDS011;20704;51.260;22.558;2023-02-07T09:47:21;35.43;;;17.73;;
34459;SDS011;20704;51.260;22.558;2023-02-07T09:51:40;31.93;;;17.60;;
34459;SDS011;20704;51.260;22.558;2023-02-07T09:55:53;30.53;;;16.40;;
34459;SDS011;20704;51.260;22.558;2023-02-07T09:57:59;32.03;;;17.53;;
34459;SDS011;20704;51.260;22.558;2023-02-07T10:02:22;32.37;;;17.43;;
34459;SDS011;20704;51.260;22.558;2023-02-07T10:04:37;34.42;;;17.38;;
34459;SDS011;20704;51.260;22.558;2023-02-07T10:06:45;33.20;;;18.70;;
34459;SDS011;20704;51.260;22.558;2023-02-07T10:08:59;31.03;;;15.47;;
34459;SDS011;20704;51.260;22.558;2023-02-07T10:20:49;27.47;;;15.30;;
34459;SDS011;20704;51.260;22.558;2023-02-07T10:30:52;29.87;;;15.17;;
34459;SDS011;20704;51.260;22.558;2023-02-07T10:32:58;30.67;;;15.80;;
34459;SDS011;20704;51.260;22.558;2023-02-07T10:35:21;27.87;;;15.40;;
34459;SDS011;20704;51.260;22.558;2023-02-07T10:37:30;27.77;;;14.87;;
34459;SDS011;20704;51.260;22.558;2023-02-07T10:39:39;28.73;;;14.97;;
34459;SDS011;20704;51.260;22.558;2023-02-07T10:41:46;28.30;;;14.43;;
34459;SDS011;20704;51.260;22.558;2023-02-07T10:43:48;28.97;;;15.70;;
34459;SDS011;20704;51.260;22.558;2023-02-07T10:45:55;29.00;;;16.17;;
34459;SDS011;20704;51.260;22.558;2023-02-07T10:48:15;31.00;;;14.47;;
34459;SDS011;20704;51.260;22.558;2023-02-07T10:50:20;29.63;;;15.20;;
34459;SDS011;20704;51.260;22.558;2023-02-07T10:52:33;25.17;;;13.95;;
34459;SDS011;20704;51.260;22.558;2023-02-07T10:54:50;28.50;;;14.43;;
34459;SDS011;20704;51.260;22.558;2023-02-07T10:57:00;29.50;;;13.87;;
34459;SDS011;20704;51.260;22.558;2023-02-07T10:59:03;25.57;;;13.50;;
34459;SDS011;20704;51.260;22.558;2023-02-07T11:01:05;28.27;;;14.07;;
34459;SDS011;20704;51.260;22.558;2023-02-07T11:03:21;23.60;;;12.30;;
34459;SDS011;20704;51.260;22.558;2023-02-07T11:05:27;26.27;;;12.47;;
34459;SDS011;20704;51.260;22.558;2023-02-07T11:07:41;23.10;;;12.13;;
34459;SDS011;20704;51.260;22.558;2023-02-07T11:10:22;26.27;;;11.77;;
34459;SDS011;20704;51.260;22.558;2023-02-07T11:12:26;21.47;;;11.57;;
34459;SDS011;20704;51.260;22.558;2023-02-07T11:14:28;22.63;;;12.07;;
34459;SDS011;20704;51.260;22.558;2023-02-07T11:16:31;23.87;;;12.20;;
34459;SDS011;20704;51.260;22.558;2023-02-07T11:18:36;21.07;;;11.53;;
34459;SDS011;20704;51.260;22.558;2023-02-07T11:20:39;22.93;;;11.70;;
34459;SDS011;20704;51.260;22.558;2023-02-07T11:22:42;21.67;;;11.80;;
34459;SDS011;20704;51.260;22.558;2023-02-07T11:24:45;25.93;;;11.77;;
34459;SDS011;20704;51.260;22.558;2023-02-07T11:26:56;21.90;;;12.00;;
34459;SDS011;20704;51.260;22.558;2023-02-07T11:31:09;22.13;;;12.70;;
34459;SDS011;20704;51.260;22.558;2023-02-07T11:33:17;20.90;;;12.20;;
34459;SDS011;20704;51.260;22.558;2023-02-07T11:35:21;21.20;;;11.37;;
34459;SDS011;20704;51.260;22.558;2023-02-07T11:37:25;23.10;;;11.77;;
34459;SDS011;20704;51.260;22.558;2023-02-07T11:39:38;26.07;;;12.03;;
34459;SDS011;20704;51.260;22.558;2023-02-07T11:41:41;24.17;;;11.30;;
34459;SDS011;20704;51.260;22.558;2023-02-07T11:43:57;24.43;;;11.83;;
34459;SDS011;20704;51.260;22.558;2023-02-07T11:46:04;25.67;;;13.27;;
34459;SDS011;20704;51.260;22.558;2023-02-07T11:48:29;27.40;;;11.90;;
34459;SDS011;20704;51.260;22.558;2023-02-07T11:50:34;26.77;;;12.00;;
34459;SDS011;20704;51.260;22.558;2023-02-07T11:52:48;26.90;;;12.80;;
34459;SDS011;20704;51.260;22.558;2023-02-07T11:54:57;27.07;;;13.37;;
34459;SDS011;20704;51.260;22.558;2023-02-07T11:57:03;29.00;;;14.87;;
34459;SDS011;20704;51.260;22.558;2023-02-07T11:59:15;24.20;;;13.10;;
34459;SDS011;20704;51.260;22.558;2023-02-07T12:01:23;30.07;;;14.23;;
34459;SDS011;20704;51.260;22.558;2023-02-07T12:03:32;28.10;;;14.00;;
34459;SDS011;20704;51.260;22.558;2023-02-07T12:05:42;25.87;;;13.53;;
34459;SDS011;20704;51.260;22.558;2023-02-07T12:07:51;25.43;;;14.33;;
34459;SDS011;20704;51.260;22.558;2023-02-07T12:09:58;29.93;;;14.40;;
34459;SDS011;20704;51.260;22.558;2023-02-07T12:12:03;30.43;;;14.67;;
34459;SDS011;20704;51.260;22.558;2023-02-07T12:14:17;29.10;;;14.20;;
34459;SDS011;20704;51.260;22.558;2023-02-07T12:16:29;29.03;;;14.27;;
34459;SDS011;20704;51.260;22.558;2023-02-07T12:18:42;26.58;;;14.38;;
34459;SDS011;20704;51.260;22.558;2023-02-07T12:25:47;32.77;;;16.03;;
34459;SDS011;20704;51.260;22.558;2023-02-07T12:27:55;26.00;;;13.53;;
34459;SDS011;20704;51.260;22.558;2023-02-07T12:34:48;34.20;;;16.50;;
34459;SDS011;20704;51.260;22.558;2023-02-07T12:36:54;25.87;;;13.53;;
34459;SDS011;20704;51.260;22.558;2023-02-07T12:40:04;31.27;;;16.87;;
34459;SDS011;20704;51.260;22.558;2023-02-07T12:44:21;30.63;;;14.73;;
34459;SDS011;20704;51.260;22.558;2023-02-07T12:46:30;31.57;;;15.20;;
34459;SDS011;20704;51.260;22.558;2023-02-07T12:51:30;31.23;;;14.97;;
34459;SDS011;20704;51.260;22.558;2023-02-07T13:00:58;28.63;;;14.73;;
34459;SDS011;20704;51.260;22.558;2023-02-07T13:03:34;32.37;;;15.40;;
34459;SDS011;20704;51.260;22.558;2023-02-07T13:12:52;23.57;;;13.00;;
34459;SDS011;20704;51.260;22.558;2023-02-07T13:19:54;34.50;;;16.20;;
34459;SDS011;20704;51.260;22.558;2023-02-07T13:24:29;34.23;;;15.90;;
34459;SDS011;20704;51.260;22.558;2023-02-07T13:26:33;30.93;;;16.13;;
34459;SDS011;20704;51.260;22.558;2023-02-07T13:30:57;31.45;;;15.50;;
34459;SDS011;20704;51.260;22.558;2023-02-07T13:33:17;27.90;;;14.60;;
34459;SDS011;20704;51.260;22.558;2023-02-07T13:35:40;27.80;;;14.33;;
34459;SDS011;20704;51.260;22.558;2023-02-07T13:40:30;27.13;;;15.00;;
34459;SDS011;20704;51.260;22.558;2023-02-07T13:44:44;28.63;;;12.43;;